createdAt,value
2018-05-19T00:00:10.407Z,14.63
2018-05-19T00:01:08.634Z,14.62
2018-05-19T00:02:09.408Z,14.62
2018-05-19T00:03:09.410Z,14.66
2018-05-19T00:04:08.406Z,14.69
2018-05-19T00:05:08.332Z,14.63
2018-05-19T00:06:08.908Z,14.69
2018-05-19T00:07:08.177Z,14.60
2018-05-19T00:08:08.103Z,14.58
2018-05-19T00:09:08.026Z,14.51
2018-05-19T00:10:08.909Z,14.47
2018-05-19T00:11:08.412Z,14.54
2018-05-19T00:12:07.812Z,14.51
2018-05-19T00:13:07.721Z,14.53
2018-05-19T00:14:07.649Z,14.51
2018-05-19T00:15:08.497Z,14.44
2018-05-19T00:16:07.492Z,14.50
2018-05-19T00:17:07.417Z,14.53
2018-05-19T00:18:07.909Z,14.48
2018-05-19T00:19:07.267Z,14.48
2018-05-19T00:20:07.205Z,14.37
2018-05-19T00:21:07.911Z,14.43
2018-05-19T00:22:07.039Z,14.47
2018-05-19T00:23:06.977Z,14.41
2018-05-19T00:24:06.886Z,14.44
2018-05-19T00:25:07.414Z,14.35
2018-05-19T00:26:07.413Z,14.26
2018-05-19T00:27:07.437Z,14.32
2018-05-19T00:28:06.604Z,14.29
2018-05-19T00:29:06.515Z,14.30
2018-05-19T00:30:06.434Z,14.29
2018-05-19T00:31:06.358Z,14.29
2018-05-19T00:32:07.006Z,14.25
2018-05-19T00:33:06.915Z,14.25
2018-05-19T00:34:06.131Z,14.25
2018-05-19T00:35:06.050Z,14.17
2018-05-19T00:36:05.976Z,14.22
2018-05-19T00:37:05.896Z,14.28
2018-05-19T00:38:06.416Z,14.20
2018-05-19T00:39:05.743Z,14.17
2018-05-19T00:40:05.669Z,14.11
2018-05-19T00:41:05.595Z,14.12
2018-05-19T00:42:06.500Z,14.14
2018-05-19T00:43:06.423Z,14.14
2018-05-19T00:44:05.380Z,14.10
2018-05-19T00:45:05.921Z,14.12
2018-05-19T00:46:05.918Z,14.11
2018-05-19T00:47:05.138Z,14.17
2018-05-19T00:48:05.060Z,14.08
2018-05-19T00:49:05.919Z,14.05
2018-05-19T00:50:05.421Z,14.07
2018-05-19T00:51:04.833Z,13.99
2018-05-19T00:52:04.755Z,14.07
2018-05-19T00:53:04.681Z,14.10
2018-05-19T00:54:05.426Z,14.07
2018-05-19T00:55:05.422Z,14.05
2018-05-19T00:56:04.449Z,14.03
2018-05-19T00:57:04.376Z,14.03
2018-05-19T00:58:05.004Z,13.93
2018-05-19T00:59:04.219Z,14.00
2018-05-19T01:00:04.147Z,13.97
2018-05-19T01:01:04.924Z,13.79
2018-05-19T01:02:03.993Z,13.90
2018-05-19T01:03:03.916Z,13.81
2018-05-19T01:04:03.839Z,13.74
2018-05-19T01:05:03.782Z,13.79
2018-05-19T01:06:04.424Z,13.77
2018-05-19T01:07:03.607Z,13.72
2018-05-19T01:08:03.552Z,13.77
2018-05-19T01:09:03.459Z,13.75
2018-05-19T01:10:03.378Z,13.67
2018-05-19T01:11:03.926Z,13.59
2018-05-19T01:12:03.226Z,13.60
2018-05-19T01:13:03.925Z,13.56
2018-05-19T01:14:03.075Z,13.60
2018-05-19T01:15:03.925Z,13.57
2018-05-19T01:16:02.945Z,13.63
2018-05-19T01:17:02.844Z,13.65
2018-05-19T01:18:02.769Z,13.60
2018-05-19T01:19:03.427Z,13.63
2018-05-19T01:20:02.618Z,13.63
2018-05-19T01:21:03.432Z,13.62
2018-05-19T01:22:02.462Z,13.65
2018-05-19T01:23:02.929Z,13.67
2018-05-19T01:24:02.316Z,13.68
2018-05-19T01:25:02.934Z,13.67
2018-05-19T01:26:02.187Z,13.67
2018-05-19T01:27:02.079Z,13.65
2018-05-19T01:28:02.951Z,13.62
2018-05-19T01:29:02.429Z,13.62
2018-05-19T01:30:03.931Z,13.56
2018-05-19T01:31:02.436Z,13.54
2018-05-19T01:32:02.439Z,13.56
2018-05-19T01:33:01.628Z,13.57
2018-05-19T01:34:02.431Z,13.53
2018-05-19T01:35:01.467Z,13.56
2018-05-19T01:36:01.932Z,13.46
2018-05-19T01:37:01.933Z,13.46
2018-05-19T01:38:01.933Z,13.47
2018-05-19T01:39:01.935Z,13.46
2018-05-19T01:40:01.107Z,13.50
2018-05-19T01:41:01.021Z,13.47
2018-05-19T01:42:00.965Z,13.35
2018-05-19T01:43:00.881Z,13.20
2018-05-19T01:44:00.777Z,13.27
2018-05-19T01:45:00.701Z,13.19
2018-05-19T01:46:00.637Z,13.20
2018-05-19T01:47:00.549Z,13.22
2018-05-19T01:48:00.471Z,13.11
2018-05-19T01:49:00.392Z,13.19
2018-05-19T01:50:00.322Z,13.12
2018-05-19T01:51:00.238Z,13.03
2018-05-19T01:52:00.164Z,13.11
2018-05-19T01:53:00.088Z,12.98
2018-05-19T01:54:00.013Z,12.95
2018-05-19T01:54:59.950Z,12.98
2018-05-19T01:55:59.857Z,13.08
2018-05-19T01:56:59.787Z,13.00
2018-05-19T01:57:59.706Z,12.95
2018-05-19T01:58:59.623Z,12.95
2018-05-19T01:59:59.549Z,13.00
2018-05-19T02:00:59.469Z,12.90
2018-05-19T02:01:59.393Z,13.00
2018-05-19T02:02:59.316Z,12.95
2018-05-19T02:03:59.255Z,12.94
2018-05-19T02:04:59.163Z,13.03
2018-05-19T02:05:59.085Z,12.91
2018-05-19T02:06:59.008Z,12.94
2018-05-19T02:07:58.933Z,12.95
2018-05-19T02:08:58.853Z,13.00
2018-05-19T02:09:58.777Z,12.94
2018-05-19T02:10:58.705Z,12.95
2018-05-19T02:11:58.623Z,12.94
2018-05-19T02:12:58.547Z,13.00
2018-05-19T02:13:58.470Z,13.01
2018-05-19T02:14:58.392Z,12.94
2018-05-19T02:15:58.342Z,12.93
2018-05-19T02:16:58.237Z,12.95
2018-05-19T02:17:58.165Z,12.91
2018-05-19T02:18:58.081Z,12.87
2018-05-19T02:19:58.005Z,12.94
2018-05-19T02:20:57.929Z,12.93
2018-05-19T02:21:57.873Z,12.95
2018-05-19T02:22:57.777Z,13.00
2018-05-19T02:23:57.703Z,12.94
2018-05-19T02:24:57.626Z,12.95
2018-05-19T02:25:57.542Z,12.95
2018-05-19T02:26:57.488Z,12.94
2018-05-19T02:27:57.390Z,13.01
2018-05-19T02:28:57.318Z,12.91
2018-05-19T02:29:57.235Z,12.94
2018-05-19T02:30:57.160Z,13.03
2018-05-19T02:31:57.084Z,12.95
2018-05-19T02:32:57.004Z,13.03
2018-05-19T02:33:56.928Z,13.03
2018-05-19T02:34:56.859Z,12.93
2018-05-19T02:35:56.774Z,12.95
2018-05-19T02:36:56.697Z,12.93
2018-05-19T02:37:56.623Z,12.98
2018-05-19T02:38:56.544Z,12.91
2018-05-19T02:39:56.473Z,12.94
2018-05-19T02:40:56.387Z,12.93
2018-05-19T02:41:56.310Z,12.86
2018-05-19T02:42:56.244Z,12.90
2018-05-19T02:43:56.161Z,12.90
2018-05-19T02:44:56.077Z,12.87
2018-05-19T02:45:56.002Z,12.83
2018-05-19T02:46:55.927Z,12.90
2018-05-19T02:47:55.858Z,12.85
2018-05-19T02:48:55.779Z,12.82
2018-05-19T02:49:55.693Z,12.90
2018-05-19T02:50:55.615Z,12.86
2018-05-19T02:51:55.550Z,12.80
2018-05-19T02:52:55.464Z,12.83
2018-05-19T02:53:55.385Z,12.80
2018-05-19T02:54:55.305Z,12.78
2018-05-19T02:55:55.228Z,12.82
2018-05-19T02:56:55.150Z,12.82
2018-05-19T02:57:55.075Z,12.90
2018-05-19T02:58:54.999Z,12.75
2018-05-19T02:59:54.926Z,12.72
2018-05-19T03:00:54.843Z,12.67
2018-05-19T03:01:54.767Z,12.73
2018-05-19T03:02:54.688Z,12.68
2018-05-19T03:03:54.626Z,12.75
2018-05-19T03:04:54.534Z,12.64
2018-05-19T03:05:54.457Z,12.70
2018-05-19T03:06:54.381Z,12.60
2018-05-19T03:07:54.311Z,12.65
2018-05-19T03:08:54.228Z,12.57
2018-05-19T03:09:54.147Z,12.65
2018-05-19T03:10:54.074Z,12.65
2018-05-19T03:11:53.997Z,12.65
2018-05-19T03:12:53.916Z,12.70
2018-05-19T03:13:53.850Z,12.62
2018-05-19T03:14:53.761Z,12.73
2018-05-19T03:15:53.687Z,12.62
2018-05-19T03:16:53.604Z,12.60
2018-05-19T03:17:53.542Z,12.64
2018-05-19T03:18:53.454Z,12.54
2018-05-19T03:19:53.374Z,12.46
2018-05-19T03:20:53.301Z,12.60
2018-05-19T03:21:53.221Z,12.57
2018-05-19T03:22:53.151Z,12.53
2018-05-19T03:23:53.063Z,12.49
2018-05-19T03:24:52.990Z,12.39
2018-05-19T03:25:52.912Z,12.40
2018-05-19T03:26:52.833Z,12.43
2018-05-19T03:27:52.757Z,12.42
2018-05-19T03:28:52.690Z,12.43
2018-05-19T03:29:52.600Z,12.35
2018-05-19T03:30:52.524Z,12.39
2018-05-19T03:31:52.445Z,12.39
2018-05-19T03:32:52.471Z,12.40
2018-05-19T03:33:52.303Z,12.39
2018-05-19T03:34:52.213Z,12.43
2018-05-19T03:35:52.133Z,12.40
2018-05-19T03:36:52.056Z,12.42
2018-05-19T03:37:51.980Z,12.39
2018-05-19T03:38:51.902Z,12.37
2018-05-19T03:39:51.825Z,12.40
2018-05-19T03:40:51.764Z,12.39
2018-05-19T03:41:51.668Z,12.43
2018-05-19T03:42:51.595Z,12.37
2018-05-19T03:43:51.512Z,12.43
2018-05-19T03:44:51.448Z,12.40
2018-05-19T03:45:51.361Z,12.42
2018-05-19T03:46:51.282Z,12.42
2018-05-19T03:47:51.203Z,12.40
2018-05-19T03:48:51.143Z,12.46
2018-05-19T03:49:51.049Z,12.46
2018-05-19T03:50:50.970Z,12.45
2018-05-19T03:51:50.896Z,12.42
2018-05-19T03:52:50.819Z,12.37
2018-05-19T03:53:50.802Z,12.45
2018-05-19T03:54:50.662Z,12.42
2018-05-19T03:55:50.584Z,12.45
2018-05-19T03:56:50.507Z,12.45
2018-05-19T03:57:50.428Z,12.43
2018-05-19T03:58:50.349Z,12.37
2018-05-19T03:59:50.274Z,12.32
2018-05-19T04:00:50.193Z,12.39
2018-05-19T04:01:50.116Z,12.40
2018-05-19T04:02:50.039Z,12.37
2018-05-19T04:03:49.963Z,12.35
2018-05-19T04:04:49.887Z,12.35
2018-05-19T04:05:49.813Z,12.32
2018-05-19T04:06:49.731Z,12.42
2018-05-19T04:07:49.652Z,12.40
2018-05-19T04:08:49.575Z,12.42
2018-05-19T04:09:49.502Z,12.43
2018-05-19T04:10:49.420Z,12.40
2018-05-19T04:11:49.341Z,12.46
2018-05-19T04:12:49.265Z,12.42
2018-05-19T04:13:49.187Z,12.46
2018-05-19T04:14:49.127Z,12.49
2018-05-19T04:15:49.034Z,12.55
2018-05-19T04:16:48.956Z,12.53
2018-05-19T04:17:48.877Z,12.60
2018-05-19T04:18:48.800Z,12.47
2018-05-19T04:19:48.723Z,12.57
2018-05-19T04:20:48.647Z,12.62
2018-05-19T04:21:48.565Z,12.70
2018-05-19T04:22:48.491Z,12.64
2018-05-19T04:23:48.413Z,12.64
2018-05-19T04:24:48.335Z,12.65
2018-05-19T04:25:48.257Z,12.49
2018-05-19T04:26:48.187Z,12.61
2018-05-19T04:27:48.101Z,12.62
2018-05-19T04:28:48.023Z,12.62
2018-05-19T04:29:47.947Z,12.60
2018-05-19T04:30:47.870Z,12.68
2018-05-19T04:31:47.793Z,12.73
2018-05-19T04:32:47.717Z,12.72
2018-05-19T04:33:47.644Z,12.83
2018-05-19T04:34:47.562Z,12.80
2018-05-19T04:35:47.497Z,12.80
2018-05-19T04:36:47.403Z,12.82
2018-05-19T04:37:47.329Z,12.86
2018-05-19T04:38:47.261Z,12.86
2018-05-19T04:39:47.172Z,12.85
2018-05-19T04:40:47.094Z,12.90
2018-05-19T04:41:47.035Z,12.87
2018-05-19T04:42:46.951Z,12.85
2018-05-19T04:43:46.871Z,12.80
2018-05-19T04:44:46.785Z,12.90
2018-05-19T04:45:46.706Z,12.83
2018-05-19T04:46:46.631Z,12.87
2018-05-19T04:47:46.553Z,12.95
2018-05-19T04:48:46.478Z,12.93
2018-05-19T04:49:46.399Z,12.95
2018-05-19T04:50:46.321Z,12.98
2018-05-19T04:51:46.246Z,13.05
2018-05-19T04:52:46.190Z,12.93
2018-05-19T04:53:46.090Z,13.03
2018-05-19T04:54:46.024Z,12.94
2018-05-19T04:55:45.941Z,12.93
2018-05-19T04:56:45.926Z,13.01
2018-05-19T04:57:45.781Z,13.04
2018-05-19T04:58:45.705Z,13.08
2018-05-19T04:59:45.629Z,13.11
2018-05-19T05:00:45.561Z,13.18
2018-05-19T05:01:45.471Z,13.18
2018-05-19T05:02:45.396Z,13.11
2018-05-19T05:03:45.330Z,13.22
2018-05-19T05:04:45.242Z,13.20
2018-05-19T05:05:45.179Z,13.30
2018-05-19T05:06:45.089Z,13.19
2018-05-19T05:07:45.011Z,13.28
2018-05-19T05:08:44.931Z,13.19
2018-05-19T05:09:44.856Z,13.39
2018-05-19T05:10:44.779Z,13.31
2018-05-19T05:11:44.703Z,13.41
2018-05-19T05:12:44.627Z,13.39
2018-05-19T05:13:44.546Z,13.52
2018-05-19T05:14:44.472Z,13.49
2018-05-19T05:15:44.400Z,13.54
2018-05-19T05:16:44.317Z,13.54
2018-05-19T05:17:44.240Z,13.68
2018-05-19T05:18:44.162Z,13.70
2018-05-19T05:19:44.112Z,13.74
2018-05-19T05:20:44.011Z,13.79
2018-05-19T05:21:43.943Z,13.93
2018-05-19T05:22:43.859Z,13.78
2018-05-19T05:23:43.779Z,13.81
2018-05-19T05:24:43.703Z,13.75
2018-05-19T05:25:43.628Z,13.87
2018-05-19T05:26:43.581Z,13.85
2018-05-19T05:27:43.532Z,13.90
2018-05-19T05:28:43.395Z,13.97
2018-05-19T05:29:43.318Z,14.00
2018-05-19T05:30:43.260Z,14.05
2018-05-19T05:31:43.168Z,14.10
2018-05-19T05:32:43.089Z,14.08
2018-05-19T05:33:43.021Z,14.15
2018-05-19T05:34:42.936Z,14.28
2018-05-19T05:35:42.861Z,14.32
2018-05-19T05:36:42.783Z,14.32
2018-05-19T05:37:42.815Z,14.33
2018-05-19T05:38:42.632Z,14.36
2018-05-19T05:39:42.565Z,14.48
2018-05-19T05:40:42.479Z,14.45
2018-05-19T05:41:42.400Z,14.41
2018-05-19T05:42:42.325Z,14.33
2018-05-19T05:43:42.262Z,14.47
2018-05-19T05:44:42.175Z,14.40
2018-05-19T05:45:42.095Z,14.48
2018-05-19T05:46:42.024Z,14.47
2018-05-19T05:47:41.946Z,14.40
2018-05-19T05:48:41.869Z,14.54
2018-05-19T05:49:41.792Z,14.51
2018-05-19T05:50:41.716Z,14.51
2018-05-19T05:51:41.639Z,14.65
2018-05-19T05:52:41.565Z,14.62
2018-05-19T05:53:41.488Z,14.68
2018-05-19T05:54:41.414Z,14.79
2018-05-19T05:55:41.338Z,14.79
2018-05-19T05:56:41.257Z,14.84
2018-05-19T05:57:41.184Z,14.85
2018-05-19T05:58:41.109Z,14.88
2018-05-19T05:59:41.147Z,14.84
2018-05-19T06:00:40.957Z,14.99
2018-05-19T06:01:40.878Z,14.97
2018-05-19T06:02:40.804Z,14.88
2018-05-19T06:03:40.727Z,14.84
2018-05-19T06:04:40.649Z,15.02
2018-05-19T06:05:40.583Z,14.88
2018-05-19T06:06:40.497Z,14.88
2018-05-19T06:07:40.424Z,14.97
2018-05-19T06:08:40.347Z,14.86
2018-05-19T06:09:40.272Z,14.79
2018-05-19T06:10:40.217Z,14.78
2018-05-19T06:11:40.119Z,14.82
2018-05-19T06:12:40.043Z,14.84
2018-05-19T06:13:39.970Z,14.89
2018-05-19T06:14:39.892Z,14.86
2018-05-19T06:15:39.829Z,14.84
2018-05-19T06:16:39.739Z,15.00
2018-05-19T06:17:39.663Z,14.99
2018-05-19T06:18:39.621Z,14.97
2018-05-19T06:19:39.513Z,15.15
2018-05-19T06:20:39.447Z,15.17
2018-05-19T06:21:39.363Z,15.11
2018-05-19T06:22:39.286Z,15.10
2018-05-19T06:23:39.212Z,15.24
2018-05-19T06:24:39.136Z,15.24
2018-05-19T06:25:39.060Z,15.21
2018-05-19T06:26:38.983Z,15.25
2018-05-19T06:27:38.909Z,15.27
2018-05-19T06:28:38.893Z,15.25
2018-05-19T06:29:38.758Z,15.33
2018-05-19T06:30:38.680Z,15.44
2018-05-19T06:31:38.604Z,15.51
2018-05-19T06:32:38.529Z,15.46
2018-05-19T06:33:38.451Z,15.52
2018-05-19T06:34:38.377Z,15.51
2018-05-19T06:35:38.307Z,15.64
2018-05-19T06:36:38.234Z,15.61
2018-05-19T06:37:38.151Z,15.72
2018-05-19T06:38:38.075Z,15.76
2018-05-19T06:39:37.999Z,15.90
2018-05-19T06:40:37.923Z,15.86
2018-05-19T06:41:37.850Z,15.92
2018-05-19T06:42:37.775Z,15.95
2018-05-19T06:43:37.700Z,15.91
2018-05-19T06:44:37.622Z,15.98
2018-05-19T06:45:37.553Z,16.08
2018-05-19T06:46:37.485Z,16.12
2018-05-19T06:47:37.402Z,16.09
2018-05-19T06:48:37.322Z,16.23
2018-05-19T06:49:37.247Z,16.20
2018-05-19T06:50:37.173Z,16.23
2018-05-19T06:51:37.117Z,16.26
2018-05-19T06:52:37.024Z,16.24
2018-05-19T06:53:36.947Z,16.38
2018-05-19T06:54:36.872Z,16.46
2018-05-19T06:55:36.800Z,16.58
2018-05-19T06:56:36.729Z,16.43
2018-05-19T06:57:36.647Z,16.54
2018-05-19T06:58:36.572Z,16.49
2018-05-19T06:59:36.499Z,16.51
2018-05-19T07:00:36.424Z,16.53
2018-05-19T07:01:36.348Z,16.53
2018-05-19T07:02:36.305Z,16.60
2018-05-19T07:03:36.197Z,16.56
2018-05-19T07:04:36.123Z,16.65
2018-05-19T07:05:36.069Z,16.68
2018-05-19T07:06:35.986Z,16.72
2018-05-19T07:07:35.899Z,16.75
2018-05-19T07:08:35.823Z,16.81
2018-05-19T07:09:35.750Z,16.83
2018-05-19T07:10:35.680Z,16.83
2018-05-19T07:11:35.604Z,16.84
2018-05-19T07:12:35.528Z,16.86
2018-05-19T07:13:35.452Z,16.81
2018-05-19T07:14:35.380Z,16.87
2018-05-19T07:15:35.319Z,16.91
2018-05-19T07:16:35.229Z,16.96
2018-05-19T07:17:35.155Z,16.96
2018-05-19T07:18:35.082Z,17.01
2018-05-19T07:19:35.006Z,17.06
2018-05-19T07:20:34.930Z,17.08
2018-05-19T07:21:34.858Z,17.11
2018-05-19T07:22:34.780Z,17.15
2018-05-19T07:23:34.707Z,17.15
2018-05-19T07:24:34.654Z,17.19
2018-05-19T07:25:34.559Z,17.30
2018-05-19T07:26:34.483Z,17.26
2018-05-19T07:27:34.483Z,17.33
2018-05-19T07:28:34.335Z,17.41
2018-05-19T07:29:34.260Z,17.36
2018-05-19T07:30:34.254Z,17.52
2018-05-19T07:31:34.117Z,17.54
2018-05-19T07:32:34.043Z,17.57
2018-05-19T07:33:33.964Z,17.64
2018-05-19T07:34:33.891Z,17.70
2018-05-19T07:35:33.817Z,17.67
2018-05-19T07:36:33.745Z,17.80
2018-05-19T07:37:33.666Z,17.65
2018-05-19T07:38:33.597Z,17.82
2018-05-19T07:39:33.524Z,17.87
2018-05-19T07:40:33.447Z,17.79
2018-05-19T07:41:33.371Z,17.80
2018-05-19T07:42:33.313Z,17.82
2018-05-19T07:43:33.226Z,17.86
2018-05-19T07:44:33.151Z,17.94
2018-05-19T07:45:33.078Z,17.97
2018-05-19T07:46:33.004Z,17.92
2018-05-19T07:47:32.937Z,18.00
2018-05-19T07:48:32.860Z,18.05
2018-05-19T07:49:32.796Z,18.05
2018-05-19T07:50:32.713Z,18.04
2018-05-19T07:51:32.635Z,18.03
2018-05-19T07:52:32.560Z,18.00
2018-05-19T07:53:32.499Z,18.08
2018-05-19T07:54:32.419Z,18.16
2018-05-19T07:55:32.339Z,18.07
2018-05-19T07:56:32.267Z,18.16
2018-05-19T07:57:32.193Z,18.20
2018-05-19T07:58:32.148Z,18.29
2018-05-19T07:59:32.047Z,18.22
2018-05-19T08:00:31.974Z,18.29
2018-05-19T08:01:31.900Z,18.33
2018-05-19T08:02:31.825Z,18.23
2018-05-19T08:03:31.752Z,18.35
2018-05-19T08:04:31.681Z,18.29
2018-05-19T08:05:31.604Z,18.37
2018-05-19T08:06:31.531Z,18.45
2018-05-19T08:07:31.480Z,18.37
2018-05-19T08:08:31.395Z,18.38
2018-05-19T08:09:31.312Z,18.44
2018-05-19T08:10:31.239Z,18.47
2018-05-19T08:11:31.196Z,18.49
2018-05-19T08:12:31.100Z,18.50
2018-05-19T08:13:31.031Z,18.62
2018-05-19T08:14:30.945Z,18.70
2018-05-19T08:15:30.873Z,18.68
2018-05-19T08:16:30.798Z,18.62
2018-05-19T08:17:30.743Z,18.81
2018-05-19T08:18:30.655Z,18.77
2018-05-19T08:19:30.578Z,18.89
2018-05-19T08:20:30.506Z,18.90
2018-05-19T08:21:30.449Z,18.77
2018-05-19T08:22:30.362Z,18.95
2018-05-19T08:23:30.286Z,18.98
2018-05-19T08:24:30.213Z,19.07
2018-05-19T08:25:30.142Z,19.12
2018-05-19T08:26:30.081Z,19.00
2018-05-19T08:27:30.000Z,19.12
2018-05-19T08:28:29.964Z,19.21
2018-05-19T08:29:29.854Z,19.26
2018-05-19T08:30:29.825Z,19.26
2018-05-19T08:31:29.701Z,19.29
2018-05-19T08:32:29.627Z,19.31
2018-05-19T08:33:29.561Z,19.41
2018-05-19T08:34:29.485Z,19.44
2018-05-19T08:35:29.424Z,19.48
2018-05-19T08:36:29.339Z,19.52
2018-05-19T08:37:29.264Z,19.59
2018-05-19T08:38:29.193Z,19.59
2018-05-19T08:39:29.142Z,19.71
2018-05-19T08:40:29.090Z,19.82
2018-05-19T08:41:28.973Z,19.85
2018-05-19T08:42:28.901Z,19.94
2018-05-19T08:43:28.827Z,19.95
2018-05-19T08:44:28.774Z,19.94
2018-05-19T08:45:28.698Z,20.02
2018-05-19T08:46:28.611Z,20.10
2018-05-19T08:47:28.539Z,20.11
2018-05-19T08:48:28.466Z,20.26
2018-05-19T08:49:28.394Z,20.28
2018-05-19T08:50:28.413Z,20.24
2018-05-19T08:51:28.251Z,20.41
2018-05-19T08:52:28.178Z,20.32
2018-05-19T08:53:28.160Z,20.37
2018-05-19T08:54:28.034Z,20.43
2018-05-19T08:55:27.960Z,20.37
2018-05-19T08:56:27.888Z,20.37
2018-05-19T08:57:27.817Z,20.36
2018-05-19T08:58:27.742Z,20.21
2018-05-19T08:59:27.672Z,20.41
2018-05-19T09:00:27.598Z,20.36
2018-05-19T09:01:27.528Z,20.37
2018-05-19T09:02:27.466Z,20.47
2018-05-19T09:03:27.404Z,20.52
2018-05-19T09:04:27.315Z,20.62
2018-05-19T09:05:27.243Z,20.65
2018-05-19T09:06:27.169Z,20.67
2018-05-19T09:07:27.097Z,20.70
2018-05-19T09:08:27.060Z,20.63
2018-05-19T09:09:26.957Z,20.69
2018-05-19T09:10:26.879Z,20.63
2018-05-19T09:11:26.808Z,20.66
2018-05-19T09:12:26.735Z,20.74
2018-05-19T09:13:26.663Z,20.70
2018-05-19T09:14:26.594Z,20.82
2018-05-19T09:15:26.521Z,20.67
2018-05-19T09:16:26.451Z,20.70
2018-05-19T09:17:26.394Z,20.75
2018-05-19T09:18:26.328Z,20.66
2018-05-19T09:19:26.256Z,20.75
2018-05-19T09:20:26.166Z,20.90
2018-05-19T09:21:26.096Z,20.78
2018-05-19T09:22:26.018Z,20.95
2018-05-19T09:23:25.966Z,21.05
2018-05-19T09:24:25.876Z,21.09
2018-05-19T09:25:25.805Z,21.09
2018-05-19T09:26:25.736Z,21.20
2018-05-19T09:27:25.661Z,21.21
2018-05-19T09:28:25.589Z,21.22
2018-05-19T09:29:25.544Z,21.25
2018-05-19T09:30:25.457Z,21.29
2018-05-19T09:31:25.427Z,21.33
2018-05-19T09:32:25.306Z,21.40
2018-05-19T09:33:25.238Z,21.45
2018-05-19T09:34:25.169Z,21.37
2018-05-19T09:35:25.090Z,21.45
2018-05-19T09:36:25.040Z,21.52
2018-05-19T09:37:24.949Z,21.55
2018-05-19T09:38:24.877Z,21.50
2018-05-19T09:39:24.821Z,21.46
2018-05-19T09:40:24.749Z,21.50
2018-05-19T09:41:24.669Z,21.46
2018-05-19T09:42:24.591Z,21.54
2018-05-19T09:43:24.521Z,21.51
2018-05-19T09:44:24.450Z,21.48
2018-05-19T09:45:24.378Z,21.45
2018-05-19T09:46:24.308Z,21.46
2018-05-19T09:47:24.256Z,21.43
2018-05-19T09:48:24.174Z,21.48
2018-05-19T09:49:24.106Z,21.43
2018-05-19T09:50:24.022Z,21.46
2018-05-19T09:51:23.953Z,21.42
2018-05-19T09:52:23.880Z,21.32
2018-05-19T09:53:23.811Z,21.39
2018-05-19T09:54:23.739Z,21.30
2018-05-19T09:55:23.803Z,21.36
2018-05-19T09:56:23.608Z,21.48
2018-05-19T09:57:23.530Z,21.51
2018-05-19T09:58:23.472Z,21.54
2018-05-19T09:59:23.484Z,21.51
2018-05-19T10:00:23.317Z,21.54
2018-05-19T10:01:23.245Z,21.62
2018-05-19T10:02:23.173Z,21.64
2018-05-19T10:03:23.098Z,21.73
2018-05-19T10:04:23.026Z,21.72
2018-05-19T10:05:22.966Z,21.80
2018-05-19T10:06:22.897Z,21.80
2018-05-19T10:07:22.821Z,21.92
2018-05-19T10:08:22.744Z,21.99
2018-05-19T10:09:22.672Z,21.99
2018-05-19T10:10:22.603Z,22.08
2018-05-19T10:11:22.535Z,22.18
2018-05-19T10:12:22.459Z,22.14
2018-05-19T10:13:22.401Z,22.13
2018-05-19T10:14:22.345Z,22.11
2018-05-19T10:15:22.248Z,22.10
2018-05-19T10:16:22.178Z,22.04
2018-05-19T10:17:22.191Z,22.11
2018-05-19T10:18:22.037Z,22.04
2018-05-19T10:19:21.979Z,22.11
2018-05-19T10:20:21.897Z,22.10
2018-05-19T10:21:21.830Z,22.23
2018-05-19T10:22:21.757Z,22.10
2018-05-19T10:23:21.685Z,22.13
2018-05-19T10:24:21.616Z,22.15
2018-05-19T10:25:21.541Z,22.14
2018-05-19T10:26:21.489Z,22.18
2018-05-19T10:27:21.423Z,22.35
2018-05-19T10:28:21.415Z,22.30
2018-05-19T10:29:21.261Z,22.39
2018-05-19T10:30:21.228Z,22.50
2018-05-19T10:31:21.120Z,22.63
2018-05-19T10:32:21.049Z,22.73
2018-05-19T10:33:20.978Z,22.76
2018-05-19T10:34:20.933Z,22.81
2018-05-19T10:35:20.848Z,22.94
2018-05-19T10:36:20.770Z,22.96
2018-05-19T10:37:20.698Z,22.90
2018-05-19T10:38:20.630Z,22.91
2018-05-19T10:39:20.563Z,22.90
2018-05-19T10:40:20.491Z,22.81
2018-05-19T10:41:20.423Z,22.85
2018-05-19T10:42:20.372Z,22.94
2018-05-19T10:43:20.282Z,22.90
2018-05-19T10:44:20.206Z,22.96
2018-05-19T10:45:20.138Z,23.00
2018-05-19T10:46:20.065Z,22.98
2018-05-19T10:47:19.997Z,23.09
2018-05-19T10:48:19.927Z,23.09
2018-05-19T10:49:19.862Z,23.15
2018-05-19T10:50:19.788Z,23.20
2018-05-19T10:51:19.716Z,23.20
2018-05-19T10:52:19.646Z,23.27
2018-05-19T10:53:19.581Z,23.25
2018-05-19T10:54:19.506Z,23.40
2018-05-19T10:55:19.441Z,23.34
2018-05-19T10:56:19.366Z,23.40
2018-05-19T10:57:19.298Z,23.27
2018-05-19T10:58:19.229Z,23.10
2018-05-19T10:59:19.180Z,23.18
2018-05-19T11:00:19.086Z,23.18
2018-05-19T11:01:19.020Z,23.36
2018-05-19T11:02:18.961Z,23.36
2018-05-19T11:03:18.894Z,23.54
2018-05-19T11:04:18.811Z,23.47
2018-05-19T11:05:18.741Z,23.58
2018-05-19T11:06:18.668Z,23.61
2018-05-19T11:07:18.614Z,23.65
2018-05-19T11:08:18.528Z,23.59
2018-05-19T11:09:18.461Z,23.71
2018-05-19T11:10:18.409Z,23.80
2018-05-19T11:11:18.330Z,23.80
2018-05-19T11:12:18.268Z,23.80
2018-05-19T11:13:18.182Z,23.84
2018-05-19T11:14:18.112Z,23.81
2018-05-19T11:15:18.042Z,23.86
2018-05-19T11:16:17.972Z,23.84
2018-05-19T11:17:17.907Z,23.92
2018-05-19T11:18:17.835Z,23.81
2018-05-19T11:19:17.766Z,23.77
2018-05-19T11:20:17.694Z,23.61
2018-05-19T11:21:17.634Z,23.61
2018-05-19T11:22:17.557Z,23.50
2018-05-19T11:23:17.485Z,23.50
2018-05-19T11:24:17.421Z,23.48
2018-05-19T11:25:17.398Z,23.47
2018-05-19T11:26:17.296Z,23.43
2018-05-19T11:27:17.208Z,23.51
2018-05-19T11:28:17.142Z,23.37
2018-05-19T11:29:17.069Z,23.39
2018-05-19T11:30:17.022Z,23.41
2018-05-19T11:31:16.950Z,23.23
2018-05-19T11:32:16.859Z,23.20
2018-05-19T11:33:16.801Z,23.00
2018-05-19T11:34:16.740Z,22.78
2018-05-19T11:35:16.654Z,22.70
2018-05-19T11:36:16.619Z,22.55
2018-05-19T11:37:16.527Z,22.48
2018-05-19T11:38:16.445Z,22.28
2018-05-19T11:39:16.382Z,22.07
2018-05-19T11:40:16.306Z,21.73
2018-05-19T11:41:16.236Z,21.58
2018-05-19T11:42:16.172Z,21.42
2018-05-19T11:43:16.106Z,21.07
2018-05-19T11:44:16.022Z,21.06
2018-05-19T11:45:15.955Z,20.96
2018-05-19T11:46:15.883Z,20.75
2018-05-19T11:47:15.814Z,20.75
2018-05-19T11:48:15.740Z,20.55
2018-05-19T11:49:15.671Z,20.34
2018-05-19T11:50:15.603Z,20.32
2018-05-19T11:51:15.534Z,20.21
2018-05-19T11:52:15.460Z,20.10
2018-05-19T11:53:15.389Z,20.03
2018-05-19T11:54:15.316Z,19.92
2018-05-19T11:55:15.246Z,19.84
2018-05-19T11:56:15.174Z,19.81
2018-05-19T11:57:15.105Z,19.66
2018-05-19T11:58:15.029Z,19.64
2018-05-19T11:59:14.969Z,19.64
2018-05-19T12:00:14.890Z,19.56
2018-05-19T12:01:14.818Z,19.58
2018-05-19T12:02:14.746Z,19.67
2018-05-19T12:03:14.676Z,19.64
2018-05-19T12:04:14.601Z,19.79
2018-05-19T12:05:14.542Z,19.84
2018-05-19T12:06:14.470Z,19.84
2018-05-19T12:07:14.387Z,19.92
2018-05-19T12:08:14.312Z,19.94
2018-05-19T12:09:14.243Z,20.09
2018-05-19T12:10:14.169Z,20.14
2018-05-19T12:11:14.102Z,20.22
2018-05-19T12:12:14.050Z,20.22
2018-05-19T12:13:13.954Z,20.39
2018-05-19T12:14:13.880Z,20.37
2018-05-19T12:15:13.809Z,20.44
2018-05-19T12:16:13.738Z,20.48
2018-05-19T12:17:13.668Z,20.55
2018-05-19T12:18:13.594Z,20.65
2018-05-19T12:19:13.525Z,20.70
2018-05-19T12:20:13.450Z,20.77
2018-05-19T12:21:13.388Z,20.84
2018-05-19T12:22:13.306Z,20.82
2018-05-19T12:23:13.234Z,20.74
2018-05-19T12:24:13.165Z,20.75
2018-05-19T12:25:13.103Z,20.72
2018-05-19T12:26:13.019Z,20.69
2018-05-19T12:27:12.952Z,20.74
2018-05-19T12:28:12.874Z,20.65
2018-05-19T12:29:12.802Z,20.52
2018-05-19T12:30:12.757Z,20.58
2018-05-19T12:31:12.659Z,20.51
2018-05-19T12:32:12.592Z,20.52
2018-05-19T12:33:12.517Z,20.47
2018-05-19T12:34:12.457Z,20.36
2018-05-19T12:35:12.374Z,20.40
2018-05-19T12:36:12.300Z,20.41
2018-05-19T12:37:12.227Z,20.32
2018-05-19T12:38:12.156Z,20.43
2018-05-19T12:39:12.090Z,20.39
2018-05-19T12:40:12.015Z,20.40
2018-05-19T12:41:11.967Z,20.36
2018-05-19T12:42:11.887Z,20.37
2018-05-19T12:43:11.800Z,20.37
2018-05-19T12:44:11.725Z,20.52
2018-05-19T12:45:11.652Z,20.50
2018-05-19T12:46:11.583Z,20.52
2018-05-19T12:47:11.509Z,20.59
2018-05-19T12:48:11.438Z,20.65
2018-05-19T12:49:11.365Z,20.74
2018-05-19T12:50:11.294Z,20.81
2018-05-19T12:51:11.221Z,20.92